Etusivu
METAR-TAF:

METAR-TAF

Lentoasemat :

Gustavus, Alaska, Yhdysvallat

Leveyspiiri: 58-25N, Pituuspiiri: 135-42W, korkeus merenpinnasta: 10 m

Tämänhetkinen sää

Tämä raportti tehtiin 1 tunti ja 8 minuuttia sitten, kello 11.56 UTC
Tuuli 10 kn luoteesta
Lämpötila -1°C
Kosteus 86%
Ilmanpaine 1005 hPa
Näkyvyys: 16.1 km
selkeää

METAR: PAGS 221156Z AUTO 32010KT 10SM CLR M01/M03 A2969 RMK AO2 SLP053 60003 70019 T10111033 10006 21011 51041 FZRANO

Aika: 04:04 (13:04 UTC)

Sääennuste

Tämä raportti tehtiin 1 tunti ja 24 minuuttia sitten, kello 11.40 UTC
Ennuste voimassa 22. päivästä klo 12 UTC - 23. päivään klo 12 UTC
Tuuli 10 kn pohjoisen/luoteesta
Näkyvyys: 10 km
Hajonneita pilviä 10000 ft:n korkeudessa
From 22. päivästä klo 1800 UTC
Tuuli 12 kn pohjoisen/luoteesta
Näkyvyys: 10 km
Muutamia pilviä 6000 ft:n korkeudessa

TAF: PAGS 221140Z 2212/2312 33010KT P6SM BKN100 WS015/01035KT FM221800 34012KT P6SM FEW060 WS020/01035KT AMD LTD TO CLD VIS AND WIND

Säähavainnot ja -ennusteet yli 4000 lentoasemalta (METAR- ja TAF-raportit).

Käytössä olevat sääasemat on merkitty karttaan keltaisilla ja punaisilla pisteillä.

Aseta hiiri pisteen päälle nähdäksesi sääaseman nimen.

Klikkaa sitten nähdäksesi säähavainnot ja -ennusteet.

Kartan vaihtaminen: klikkaa mustalla rastilla varustettuja vihreitä pisteitä, niin voit zoomata sisään; viivalla varustettua vihreää pistettä, niin voit zoomata ulos tai vihreitä nuolia, niin pääset viereisille kartoille.


METAR-TAF: